sensor_id;sensor_type;location;lat;lon;timestamp;P1;durP1;ratioP1;P2;durP2;ratioP2
5951;SDS011;3001;42.622;23.194;2023-03-01T00:00:52;7.93;;;7.17;;
5951;SDS011;3001;42.622;23.194;2023-03-01T00:03:18;8.47;;;7.80;;
5951;SDS011;3001;42.622;23.194;2023-03-01T00:05:45;8.57;;;7.87;;
5951;SDS011;3001;42.622;23.194;2023-03-01T00:08:13;7.40;;;6.80;;
5951;SDS011;3001;42.622;23.194;2023-03-01T00:10:40;8.20;;;7.60;;
5951;SDS011;3001;42.622;23.194;2023-03-01T00:13:06;7.27;;;6.50;;
5951;SDS011;3001;42.622;23.194;2023-03-01T00:15:33;6.37;;;5.97;;
5951;SDS011;3001;42.622;23.194;2023-03-01T00:18:04;8.40;;;7.70;;
5951;SDS011;3001;42.622;23.194;2023-03-01T00:20:31;8.47;;;7.77;;
5951;SDS011;3001;42.622;23.194;2023-03-01T00:22:57;8.40;;;7.70;;
5951;SDS011;3001;42.622;23.194;2023-03-01T00:25:26;8.20;;;7.70;;
5951;SDS011;3001;42.622;23.194;2023-03-01T00:27:52;10.73;;;7.83;;
5951;SDS011;3001;42.622;23.194;2023-03-01T00:30:19;9.23;;;7.50;;
5951;SDS011;3001;42.622;23.194;2023-03-01T00:32:46;11.50;;;8.03;;
5951;SDS011;3001;42.622;23.194;2023-03-01T00:35:12;7.80;;;7.17;;
5951;SDS011;3001;42.622;23.194;2023-03-01T00:37:39;9.13;;;8.43;;
5951;SDS011;3001;42.622;23.194;2023-03-01T00:40:07;10.77;;;8.30;;
5951;SDS011;3001;42.622;23.194;2023-03-01T00:42:36;21.27;;;9.37;;
5951;SDS011;3001;42.622;23.194;2023-03-01T00:45:03;9.00;;;8.33;;
5951;SDS011;3001;42.622;23.194;2023-03-01T00:47:32;10.27;;;9.37;;
5951;SDS011;3001;42.622;23.194;2023-03-01T00:49:59;9.20;;;8.40;;
5951;SDS011;3001;42.622;23.194;2023-03-01T00:52:26;9.73;;;8.93;;
5951;SDS011;3001;42.622;23.194;2023-03-01T00:54:53;9.97;;;9.07;;
5951;SDS011;3001;42.622;23.194;2023-03-01T00:57:20;9.80;;;9.00;;
5951;SDS011;3001;42.622;23.194;2023-03-01T00:59:48;9.67;;;8.87;;
5951;SDS011;3001;42.622;23.194;2023-03-01T01:02:14;14.73;;;10.90;;
5951;SDS011;3001;42.622;23.194;2023-03-01T01:04:41;10.43;;;9.60;;
5951;SDS011;3001;42.622;23.194;2023-03-01T01:07:08;11.03;;;10.20;;
5951;SDS011;3001;42.622;23.194;2023-03-01T01:09:34;10.67;;;9.67;;
5951;SDS011;3001;42.622;23.194;2023-03-01T01:12:02;10.63;;;9.83;;
5951;SDS011;3001;42.622;23.194;2023-03-01T01:14:29;10.90;;;10.00;;
5951;SDS011;3001;42.622;23.194;2023-03-01T01:16:57;10.97;;;10.07;;
5951;SDS011;3001;42.622;23.194;2023-03-01T01:19:24;14.27;;;10.13;;
5951;SDS011;3001;42.622;23.194;2023-03-01T01:21:52;13.47;;;12.03;;
5951;SDS011;3001;42.622;23.194;2023-03-01T01:24:19;35.27;;;12.13;;
5951;SDS011;3001;42.622;23.194;2023-03-01T01:26:46;31.30;;;11.57;;
5951;SDS011;3001;42.622;23.194;2023-03-01T01:29:13;35.07;;;11.43;;
5951;SDS011;3001;42.622;23.194;2023-03-01T01:31:40;13.33;;;12.03;;
5951;SDS011;3001;42.622;23.194;2023-03-01T01:34:14;13.93;;;11.90;;
5951;SDS011;3001;42.622;23.194;2023-03-01T01:36:42;11.73;;;10.73;;
5951;SDS011;3001;42.622;23.194;2023-03-01T01:39:09;11.73;;;10.63;;
5951;SDS011;3001;42.622;23.194;2023-03-01T01:41:38;13.27;;;10.80;;
5951;SDS011;3001;42.622;23.194;2023-03-01T01:44:16;14.13;;;11.00;;
5951;SDS011;3001;42.622;23.194;2023-03-01T01:46:46;11.93;;;10.73;;
5951;SDS011;3001;42.622;23.194;2023-03-01T01:49:27;11.90;;;10.90;;
5951;SDS011;3001;42.622;23.194;2023-03-01T01:52:06;9.60;;;8.90;;
5951;SDS011;3001;42.622;23.194;2023-03-01T01:54:38;9.47;;;8.73;;
5951;SDS011;3001;42.622;23.194;2023-03-01T01:57:11;8.87;;;8.27;;
5951;SDS011;3001;42.622;23.194;2023-03-01T01:59:40;8.47;;;7.97;;
5951;SDS011;3001;42.622;23.194;2023-03-01T02:02:12;7.40;;;7.00;;
5951;SDS011;3001;42.622;23.194;2023-03-01T02:04:41;7.30;;;6.90;;
5951;SDS011;3001;42.622;23.194;2023-03-01T02:07:10;7.80;;;7.10;;
5951;SDS011;3001;42.622;23.194;2023-03-01T02:09:41;8.20;;;7.60;;
5951;SDS011;3001;42.622;23.194;2023-03-01T02:12:11;8.30;;;7.50;;
5951;SDS011;3001;42.622;23.194;2023-03-01T02:14:39;8.83;;;8.23;;
5951;SDS011;3001;42.622;23.194;2023-03-01T02:17:06;8.67;;;8.07;;
5951;SDS011;3001;42.622;23.194;2023-03-01T02:19:37;9.37;;;8.70;;
5951;SDS011;3001;42.622;23.194;2023-03-01T02:22:17;9.70;;;8.90;;
5951;SDS011;3001;42.622;23.194;2023-03-01T02:24:51;9.40;;;8.70;;
5951;SDS011;3001;42.622;23.194;2023-03-01T02:27:30;9.50;;;8.70;;
5951;SDS011;3001;42.622;23.194;2023-03-01T02:30:05;7.37;;;6.87;;
5951;SDS011;3001;42.622;23.194;2023-03-01T02:32:33;7.27;;;6.83;;
5951;SDS011;3001;42.622;23.194;2023-03-01T02:35:00;7.70;;;7.30;;
5951;SDS011;3001;42.622;23.194;2023-03-01T02:37:27;7.37;;;6.93;;
5951;SDS011;3001;42.622;23.194;2023-03-01T02:39:55;7.60;;;7.10;;
5951;SDS011;3001;42.622;23.194;2023-03-01T02:42:26;7.00;;;6.60;;
5951;SDS011;3001;42.622;23.194;2023-03-01T02:44:57;6.50;;;6.00;;
5951;SDS011;3001;42.622;23.194;2023-03-01T02:47:25;6.33;;;6.03;;
5951;SDS011;3001;42.622;23.194;2023-03-01T02:49:52;5.90;;;5.60;;
5951;SDS011;3001;42.622;23.194;2023-03-01T02:55:10;5.63;;;5.33;;
5951;SDS011;3001;42.622;23.194;2023-03-01T02:57:39;6.40;;;6.00;;
5951;SDS011;3001;42.622;23.194;2023-03-01T03:00:08;5.57;;;5.27;;
5951;SDS011;3001;42.622;23.194;2023-03-01T03:02:45;5.83;;;5.50;;
5951;SDS011;3001;42.622;23.194;2023-03-01T03:05:14;5.43;;;5.17;;
5951;SDS011;3001;42.622;23.194;2023-03-01T03:07:43;4.83;;;4.63;;
5951;SDS011;3001;42.622;23.194;2023-03-01T03:10:12;7.20;;;6.70;;
5951;SDS011;3001;42.622;23.194;2023-03-01T03:12:40;6.63;;;6.20;;
5951;SDS011;3001;42.622;23.194;2023-03-01T03:15:08;6.80;;;6.40;;
5951;SDS011;3001;42.622;23.194;2023-03-01T03:17:38;5.90;;;5.53;;
5951;SDS011;3001;42.622;23.194;2023-03-01T03:20:08;5.93;;;5.63;;
5951;SDS011;3001;42.622;23.194;2023-03-01T03:22:37;6.00;;;5.70;;
5951;SDS011;3001;42.622;23.194;2023-03-01T03:25:04;6.07;;;5.77;;
5951;SDS011;3001;42.622;23.194;2023-03-01T03:27:35;6.10;;;5.70;;
5951;SDS011;3001;42.622;23.194;2023-03-01T03:30:03;5.70;;;5.40;;
5951;SDS011;3001;42.622;23.194;2023-03-01T03:32:33;6.13;;;5.77;;
5951;SDS011;3001;42.622;23.194;2023-03-01T03:35:01;6.73;;;6.23;;
5951;SDS011;3001;42.622;23.194;2023-03-01T03:37:29;6.50;;;6.20;;
5951;SDS011;3001;42.622;23.194;2023-03-01T03:40:19;6.20;;;5.90;;
5951;SDS011;3001;42.622;23.194;2023-03-01T03:42:46;6.13;;;5.83;;
5951;SDS011;3001;42.622;23.194;2023-03-01T03:45:13;6.57;;;6.17;;
5951;SDS011;3001;42.622;23.194;2023-03-01T03:47:40;6.17;;;5.87;;
5951;SDS011;3001;42.622;23.194;2023-03-01T03:50:07;6.17;;;5.80;;
5951;SDS011;3001;42.622;23.194;2023-03-01T03:52:36;5.63;;;5.33;;
5951;SDS011;3001;42.622;23.194;2023-03-01T03:55:04;6.30;;;6.00;;
5951;SDS011;3001;42.622;23.194;2023-03-01T03:57:34;7.17;;;6.67;;
5951;SDS011;3001;42.622;23.194;2023-03-01T04:00:01;6.53;;;6.13;;
5951;SDS011;3001;42.622;23.194;2023-03-01T04:02:30;6.07;;;5.67;;
5951;SDS011;3001;42.622;23.194;2023-03-01T04:04:57;6.63;;;6.23;;
5951;SDS011;3001;42.622;23.194;2023-03-01T04:07:23;7.80;;;7.30;;
5951;SDS011;3001;42.622;23.194;2023-03-01T04:09:51;6.13;;;5.77;;
5951;SDS011;3001;42.622;23.194;2023-03-01T04:12:18;6.30;;;5.90;;
5951;SDS011;3001;42.622;23.194;2023-03-01T04:14:48;6.27;;;5.87;;
5951;SDS011;3001;42.622;23.194;2023-03-01T04:17:14;5.90;;;5.57;;
5951;SDS011;3001;42.622;23.194;2023-03-01T04:19:41;7.40;;;6.10;;
5951;SDS011;3001;42.622;23.194;2023-03-01T04:22:09;6.20;;;5.80;;
5951;SDS011;3001;42.622;23.194;2023-03-01T04:24:36;6.47;;;6.07;;
5951;SDS011;3001;42.622;23.194;2023-03-01T04:27:04;6.17;;;5.77;;
5951;SDS011;3001;42.622;23.194;2023-03-01T04:29:31;7.27;;;6.70;;
5951;SDS011;3001;42.622;23.194;2023-03-01T04:31:57;7.07;;;6.60;;
5951;SDS011;3001;42.622;23.194;2023-03-01T04:34:24;6.63;;;6.17;;
5951;SDS011;3001;42.622;23.194;2023-03-01T04:36:51;7.40;;;7.00;;
5951;SDS011;3001;42.622;23.194;2023-03-01T04:39:18;6.90;;;6.37;;
5951;SDS011;3001;42.622;23.194;2023-03-01T04:41:45;6.67;;;6.20;;
5951;SDS011;3001;42.622;23.194;2023-03-01T04:44:13;6.30;;;5.90;;
5951;SDS011;3001;42.622;23.194;2023-03-01T04:46:40;6.13;;;5.73;;
5951;SDS011;3001;42.622;23.194;2023-03-01T04:49:06;6.07;;;5.67;;
5951;SDS011;3001;42.622;23.194;2023-03-01T04:51:33;6.20;;;5.70;;
5951;SDS011;3001;42.622;23.194;2023-03-01T04:54:00;7.07;;;6.60;;
5951;SDS011;3001;42.622;23.194;2023-03-01T04:56:26;6.90;;;6.37;;
5951;SDS011;3001;42.622;23.194;2023-03-01T04:58:53;7.40;;;7.00;;
5951;SDS011;3001;42.622;23.194;2023-03-01T05:01:22;7.43;;;7.00;;
5951;SDS011;3001;42.622;23.194;2023-03-01T05:03:49;7.13;;;6.63;;
5951;SDS011;3001;42.622;23.194;2023-03-01T05:06:18;7.03;;;6.63;;
5951;SDS011;3001;42.622;23.194;2023-03-01T05:08:45;6.90;;;6.50;;
5951;SDS011;3001;42.622;23.194;2023-03-01T05:11:12;7.13;;;6.73;;
5951;SDS011;3001;42.622;23.194;2023-03-01T05:13:39;6.70;;;6.30;;
5951;SDS011;3001;42.622;23.194;2023-03-01T05:16:06;7.17;;;6.43;;
5951;SDS011;3001;42.622;23.194;2023-03-01T05:18:37;7.07;;;6.47;;
5951;SDS011;3001;42.622;23.194;2023-03-01T05:21:05;7.27;;;6.87;;
5951;SDS011;3001;42.622;23.194;2023-03-01T05:23:33;7.80;;;7.30;;
5951;SDS011;3001;42.622;23.194;2023-03-01T05:26:01;7.00;;;6.50;;
5951;SDS011;3001;42.622;23.194;2023-03-01T05:28:29;7.47;;;6.97;;
5951;SDS011;3001;42.622;23.194;2023-03-01T05:30:56;8.07;;;7.43;;
5951;SDS011;3001;42.622;23.194;2023-03-01T05:33:24;7.53;;;6.93;;
5951;SDS011;3001;42.622;23.194;2023-03-01T05:35:52;7.67;;;7.17;;
5951;SDS011;3001;42.622;23.194;2023-03-01T05:38:19;8.03;;;7.33;;
5951;SDS011;3001;42.622;23.194;2023-03-01T05:40:47;6.93;;;6.43;;
5951;SDS011;3001;42.622;23.194;2023-03-01T05:43:15;7.97;;;7.20;;
5951;SDS011;3001;42.622;23.194;2023-03-01T05:45:43;9.47;;;8.77;;
5951;SDS011;3001;42.622;23.194;2023-03-01T05:48:10;10.03;;;9.13;;
5951;SDS011;3001;42.622;23.194;2023-03-01T05:50:38;20.60;;;13.07;;
5951;SDS011;3001;42.622;23.194;2023-03-01T05:53:09;36.30;;;19.50;;
5951;SDS011;3001;42.622;23.194;2023-03-01T05:55:37;22.10;;;14.03;;
5951;SDS011;3001;42.622;23.194;2023-03-01T05:58:05;43.60;;;23.83;;
5951;SDS011;3001;42.622;23.194;2023-03-01T06:00:33;14.10;;;10.57;;
5951;SDS011;3001;42.622;23.194;2023-03-01T06:03:00;9.97;;;8.97;;
5951;SDS011;3001;42.622;23.194;2023-03-01T06:05:27;14.77;;;12.70;;
5951;SDS011;3001;42.622;23.194;2023-03-01T06:07:55;10.50;;;9.60;;
5951;SDS011;3001;42.622;23.194;2023-03-01T06:10:25;7.97;;;7.37;;
5951;SDS011;3001;42.622;23.194;2023-03-01T06:12:53;6.83;;;6.43;;
5951;SDS011;3001;42.622;23.194;2023-03-01T06:15:20;7.87;;;7.10;;
5951;SDS011;3001;42.622;23.194;2023-03-01T06:17:47;7.50;;;6.97;;
5951;SDS011;3001;42.622;23.194;2023-03-01T06:20:16;6.27;;;5.87;;
5951;SDS011;3001;42.622;23.194;2023-03-01T06:22:44;6.47;;;5.87;;
5951;SDS011;3001;42.622;23.194;2023-03-01T06:25:11;5.40;;;5.10;;
5951;SDS011;3001;42.622;23.194;2023-03-01T06:27:41;6.03;;;5.53;;
5951;SDS011;3001;42.622;23.194;2023-03-01T06:30:09;5.13;;;4.63;;
5951;SDS011;3001;42.622;23.194;2023-03-01T06:32:37;6.07;;;5.50;;
5951;SDS011;3001;42.622;23.194;2023-03-01T06:35:07;5.37;;;4.97;;
5951;SDS011;3001;42.622;23.194;2023-03-01T06:37:34;6.03;;;5.63;;
5951;SDS011;3001;42.622;23.194;2023-03-01T06:40:01;5.67;;;5.37;;
5951;SDS011;3001;42.622;23.194;2023-03-01T06:42:32;5.33;;;5.03;;
5951;SDS011;3001;42.622;23.194;2023-03-01T06:45:00;6.23;;;5.63;;
5951;SDS011;3001;42.622;23.194;2023-03-01T06:47:26;7.00;;;5.50;;
5951;SDS011;3001;42.622;23.194;2023-03-01T06:49:53;6.00;;;5.50;;
5951;SDS011;3001;42.622;23.194;2023-03-01T06:52:20;6.70;;;6.20;;
5951;SDS011;3001;42.622;23.194;2023-03-01T06:54:46;6.70;;;6.20;;
5951;SDS011;3001;42.622;23.194;2023-03-01T06:57:13;7.40;;;6.70;;
5951;SDS011;3001;42.622;23.194;2023-03-01T06:59:40;6.27;;;5.90;;
5951;SDS011;3001;42.622;23.194;2023-03-01T07:02:09;6.07;;;5.67;;
5951;SDS011;3001;42.622;23.194;2023-03-01T07:04:36;5.93;;;5.43;;
5951;SDS011;3001;42.622;23.194;2023-03-01T07:07:03;5.87;;;5.37;;
5951;SDS011;3001;42.622;23.194;2023-03-01T07:09:30;5.57;;;5.07;;
5951;SDS011;3001;42.622;23.194;2023-03-01T07:11:56;5.70;;;5.30;;
5951;SDS011;3001;42.622;23.194;2023-03-01T07:14:23;6.70;;;6.20;;
5951;SDS011;3001;42.622;23.194;2023-03-01T07:16:50;5.93;;;5.53;;
5951;SDS011;3001;42.622;23.194;2023-03-01T07:19:19;6.63;;;5.60;;
5951;SDS011;3001;42.622;23.194;2023-03-01T07:21:45;6.17;;;5.80;;
5951;SDS011;3001;42.622;23.194;2023-03-01T07:24:12;5.40;;;5.10;;
5951;SDS011;3001;42.622;23.194;2023-03-01T07:26:39;5.70;;;5.30;;
5951;SDS011;3001;42.622;23.194;2023-03-01T07:29:06;5.77;;;5.37;;
5951;SDS011;3001;42.622;23.194;2023-03-01T07:31:34;6.23;;;5.73;;
5951;SDS011;3001;42.622;23.194;2023-03-01T07:34:00;5.40;;;5.10;;
5951;SDS011;3001;42.622;23.194;2023-03-01T07:36:28;7.23;;;6.63;;
5951;SDS011;3001;42.622;23.194;2023-03-01T07:38:55;8.17;;;6.50;;
5951;SDS011;3001;42.622;23.194;2023-03-01T07:41:22;6.13;;;5.70;;
5951;SDS011;3001;42.622;23.194;2023-03-01T07:43:49;5.50;;;5.10;;
5951;SDS011;3001;42.622;23.194;2023-03-01T07:46:16;5.43;;;5.03;;
5951;SDS011;3001;42.622;23.194;2023-03-01T07:48:44;6.07;;;5.53;;
5951;SDS011;3001;42.622;23.194;2023-03-01T07:51:13;5.73;;;5.13;;
5951;SDS011;3001;42.622;23.194;2023-03-01T07:53:41;7.67;;;6.27;;
5951;SDS011;3001;42.622;23.194;2023-03-01T07:56:09;6.57;;;6.10;;
5951;SDS011;3001;42.622;23.194;2023-03-01T07:58:37;5.77;;;5.37;;
5951;SDS011;3001;42.622;23.194;2023-03-01T08:01:07;5.73;;;5.23;;
5951;SDS011;3001;42.622;23.194;2023-03-01T08:03:35;6.50;;;6.00;;
5951;SDS011;3001;42.622;23.194;2023-03-01T08:06:04;6.63;;;6.13;;
5951;SDS011;3001;42.622;23.194;2023-03-01T08:08:33;6.07;;;5.60;;
5951;SDS011;3001;42.622;23.194;2023-03-01T08:11:02;7.70;;;6.20;;
5951;SDS011;3001;42.622;23.194;2023-03-01T08:13:31;6.23;;;5.63;;
5951;SDS011;3001;42.622;23.194;2023-03-01T08:16:00;5.63;;;5.13;;
5951;SDS011;3001;42.622;23.194;2023-03-01T08:18:28;5.23;;;4.90;;
5951;SDS011;3001;42.622;23.194;2023-03-01T08:20:55;5.80;;;5.40;;
5951;SDS011;3001;42.622;23.194;2023-03-01T08:23:21;5.50;;;5.13;;
5951;SDS011;3001;42.622;23.194;2023-03-01T08:25:48;6.20;;;5.70;;
5951;SDS011;3001;42.622;23.194;2023-03-01T08:28:16;18.93;;;10.87;;
5951;SDS011;3001;42.622;23.194;2023-03-01T08:30:43;32.10;;;12.13;;
5951;SDS011;3001;42.622;23.194;2023-03-01T08:33:09;34.37;;;12.30;;
5951;SDS011;3001;42.622;23.194;2023-03-01T08:35:36;28.03;;;11.07;;
5951;SDS011;3001;42.622;23.194;2023-03-01T08:38:03;17.67;;;8.27;;
5951;SDS011;3001;42.622;23.194;2023-03-01T08:40:29;7.83;;;5.87;;
5951;SDS011;3001;42.622;23.194;2023-03-01T08:42:57;6.07;;;5.43;;
5951;SDS011;3001;42.622;23.194;2023-03-01T08:45:25;7.60;;;4.90;;
5951;SDS011;3001;42.622;23.194;2023-03-01T08:47:52;11.80;;;6.17;;
5951;SDS011;3001;42.622;23.194;2023-03-01T08:50:19;9.67;;;6.13;;
5951;SDS011;3001;42.622;23.194;2023-03-01T08:52:45;10.87;;;6.80;;
5951;SDS011;3001;42.622;23.194;2023-03-01T08:55:12;5.83;;;5.33;;
5951;SDS011;3001;42.622;23.194;2023-03-01T08:57:41;4.80;;;4.40;;
5951;SDS011;3001;42.622;23.194;2023-03-01T09:00:08;4.87;;;4.47;;
5951;SDS011;3001;42.622;23.194;2023-03-01T09:02:37;6.40;;;4.50;;
5951;SDS011;3001;42.622;23.194;2023-03-01T09:05:04;6.70;;;5.70;;
5951;SDS011;3001;42.622;23.194;2023-03-01T09:07:31;6.10;;;5.60;;
5951;SDS011;3001;42.622;23.194;2023-03-01T09:09:58;6.53;;;5.93;;
5951;SDS011;3001;42.622;23.194;2023-03-01T09:12:25;7.00;;;5.80;;
5951;SDS011;3001;42.622;23.194;2023-03-01T09:14:51;6.23;;;5.63;;
5951;SDS011;3001;42.622;23.194;2023-03-01T09:17:18;6.57;;;5.83;;
5951;SDS011;3001;42.622;23.194;2023-03-01T09:19:47;5.30;;;4.80;;
5951;SDS011;3001;42.622;23.194;2023-03-01T09:22:14;7.27;;;4.53;;
5951;SDS011;3001;42.622;23.194;2023-03-01T09:24:41;5.67;;;5.17;;
5951;SDS011;3001;42.622;23.194;2023-03-01T09:27:08;5.80;;;5.03;;
5951;SDS011;3001;42.622;23.194;2023-03-01T09:29:35;4.97;;;4.57;;
5951;SDS011;3001;42.622;23.194;2023-03-01T09:32:02;6.00;;;5.60;;
5951;SDS011;3001;42.622;23.194;2023-03-01T09:34:29;12.33;;;5.97;;
5951;SDS011;3001;42.622;23.194;2023-03-01T09:37:18;7.33;;;5.97;;
5951;SDS011;3001;42.622;23.194;2023-03-01T09:39:45;10.20;;;5.80;;
5951;SDS011;3001;42.622;23.194;2023-03-01T09:42:12;5.93;;;4.70;;
5951;SDS011;3001;42.622;23.194;2023-03-01T09:44:42;4.73;;;4.33;;
5951;SDS011;3001;42.622;23.194;2023-03-01T09:47:16;4.80;;;4.50;;
5951;SDS011;3001;42.622;23.194;2023-03-01T09:49:45;4.67;;;4.20;;
5951;SDS011;3001;42.622;23.194;2023-03-01T09:52:25;4.83;;;4.13;;
5951;SDS011;3001;42.622;23.194;2023-03-01T09:54:57;3.93;;;3.73;;
5951;SDS011;3001;42.622;23.194;2023-03-01T09:57:26;3.80;;;3.60;;
5951;SDS011;3001;42.622;23.194;2023-03-01T10:00:01;4.20;;;3.83;;
5951;SDS011;3001;42.622;23.194;2023-03-01T10:02:39;8.83;;;5.00;;
5951;SDS011;3001;42.622;23.194;2023-03-01T10:05:15;6.17;;;5.13;;
5951;SDS011;3001;42.622;23.194;2023-03-01T10:07:57;4.63;;;4.33;;
5951;SDS011;3001;42.622;23.194;2023-03-01T10:10:33;5.73;;;4.10;;
5951;SDS011;3001;42.622;23.194;2023-03-01T10:13:03;4.43;;;4.13;;
5951;SDS011;3001;42.622;23.194;2023-03-01T10:15:38;4.20;;;3.90;;
5951;SDS011;3001;42.622;23.194;2023-03-01T10:18:10;4.30;;;3.90;;
5951;SDS011;3001;42.622;23.194;2023-03-01T10:20:42;3.47;;;3.17;;
5951;SDS011;3001;42.622;23.194;2023-03-01T10:23:14;3.97;;;3.67;;
5951;SDS011;3001;42.622;23.194;2023-03-01T10:25:44;3.40;;;3.20;;
5951;SDS011;3001;42.622;23.194;2023-03-01T10:28:25;3.83;;;3.53;;
5951;SDS011;3001;42.622;23.194;2023-03-01T10:30:57;4.97;;;4.67;;
5951;SDS011;3001;42.622;23.194;2023-03-01T10:33:26;4.53;;;4.13;;
5951;SDS011;3001;42.622;23.194;2023-03-01T10:35:55;3.90;;;3.60;;
5951;SDS011;3001;42.622;23.194;2023-03-01T10:38:23;3.40;;;3.20;;
5951;SDS011;3001;42.622;23.194;2023-03-01T10:40:52;3.83;;;3.53;;
5951;SDS011;3001;42.622;23.194;2023-03-01T10:43:21;4.60;;;3.77;;
5951;SDS011;3001;42.622;23.194;2023-03-01T10:45:49;3.80;;;3.60;;
5951;SDS011;3001;42.622;23.194;2023-03-01T10:48:17;4.70;;;4.40;;
5951;SDS011;3001;42.622;23.194;2023-03-01T10:50:49;4.63;;;4.30;;
5951;SDS011;3001;42.622;23.194;2023-03-01T10:53:20;4.27;;;3.97;;
5951;SDS011;3001;42.622;23.194;2023-03-01T10:56:01;5.00;;;3.90;;
5951;SDS011;3001;42.622;23.194;2023-03-01T10:58:31;4.03;;;3.83;;
5951;SDS011;3001;42.622;23.194;2023-03-01T11:00:59;5.13;;;4.73;;
5951;SDS011;3001;42.622;23.194;2023-03-01T11:03:28;4.73;;;4.27;;
5951;SDS011;3001;42.622;23.194;2023-03-01T11:06:00;4.03;;;3.63;;
5951;SDS011;3001;42.622;23.194;2023-03-01T11:08:32;4.20;;;3.90;;
5951;SDS011;3001;42.622;23.194;2023-03-01T11:11:05;5.07;;;4.67;;
5951;SDS011;3001;42.622;23.194;2023-03-01T11:13:39;4.30;;;4.03;;
5951;SDS011;3001;42.622;23.194;2023-03-01T11:19:12;5.10;;;4.80;;
5951;SDS011;3001;42.622;23.194;2023-03-01T11:21:42;5.23;;;4.90;;
5951;SDS011;3001;42.622;23.194;2023-03-01T11:24:18;6.43;;;5.83;;
5951;SDS011;3001;42.622;23.194;2023-03-01T11:26:50;6.10;;;5.47;;
5951;SDS011;3001;42.622;23.194;2023-03-01T11:29:21;6.20;;;5.80;;
5951;SDS011;3001;42.622;23.194;2023-03-01T11:31:54;5.37;;;4.97;;
5951;SDS011;3001;42.622;23.194;2023-03-01T11:34:28;5.60;;;5.20;;
5951;SDS011;3001;42.622;23.194;2023-03-01T11:37:05;5.73;;;5.27;;
5951;SDS011;3001;42.622;23.194;2023-03-01T11:39:46;5.83;;;5.33;;
5951;SDS011;3001;42.622;23.194;2023-03-01T11:42:18;4.60;;;4.30;;
5951;SDS011;3001;42.622;23.194;2023-03-01T11:44:52;5.80;;;5.33;;
5951;SDS011;3001;42.622;23.194;2023-03-01T11:47:24;6.40;;;5.90;;
5951;SDS011;3001;42.622;23.194;2023-03-01T11:50:16;5.10;;;4.67;;
5951;SDS011;3001;42.622;23.194;2023-03-01T11:52:53;5.43;;;4.93;;
5951;SDS011;3001;42.622;23.194;2023-03-01T11:55:40;4.77;;;4.47;;
5951;SDS011;3001;42.622;23.194;2023-03-01T11:58:22;5.40;;;5.00;;
5951;SDS011;3001;42.622;23.194;2023-03-01T12:01:03;7.20;;;6.60;;
5951;SDS011;3001;42.622;23.194;2023-03-01T12:03:43;5.53;;;5.13;;
5951;SDS011;3001;42.622;23.194;2023-03-01T12:06:46;5.43;;;4.93;;
5951;SDS011;3001;42.622;23.194;2023-03-01T12:09:31;5.73;;;5.23;;
5951;SDS011;3001;42.622;23.194;2023-03-01T12:12:16;5.43;;;5.03;;
5951;SDS011;3001;42.622;23.194;2023-03-01T12:14:55;6.23;;;5.63;;
5951;SDS011;3001;42.622;23.194;2023-03-01T12:17:40;5.63;;;5.20;;
5951;SDS011;3001;42.622;23.194;2023-03-01T12:20:21;6.40;;;5.97;;
5951;SDS011;3001;42.622;23.194;2023-03-01T12:23:00;5.53;;;5.23;;
5951;SDS011;3001;42.622;23.194;2023-03-01T12:25:42;7.17;;;5.13;;
5951;SDS011;3001;42.622;23.194;2023-03-01T12:28:28;4.80;;;4.50;;
5951;SDS011;3001;42.622;23.194;2023-03-01T12:31:33;4.60;;;4.30;;
5951;SDS011;3001;42.622;23.194;2023-03-01T12:34:08;4.93;;;4.63;;
5951;SDS011;3001;42.622;23.194;2023-03-01T12:36:56;5.50;;;5.03;;
5951;SDS011;3001;42.622;23.194;2023-03-01T12:39:39;5.87;;;5.40;;
5951;SDS011;3001;42.622;23.194;2023-03-01T12:42:20;5.30;;;5.00;;
5951;SDS011;3001;42.622;23.194;2023-03-01T12:45:00;6.00;;;5.50;;
5951;SDS011;3001;42.622;23.194;2023-03-01T12:47:52;5.83;;;5.33;;
5951;SDS011;3001;42.622;23.194;2023-03-01T12:50:32;5.10;;;4.80;;
5951;SDS011;3001;42.622;23.194;2023-03-01T12:53:07;5.30;;;4.90;;
5951;SDS011;3001;42.622;23.194;2023-03-01T12:55:45;5.63;;;5.13;;
5951;SDS011;3001;42.622;23.194;2023-03-01T12:58:16;4.70;;;4.40;;
5951;SDS011;3001;42.622;23.194;2023-03-01T13:00:54;5.20;;;4.90;;
5951;SDS011;3001;42.622;23.194;2023-03-01T13:03:33;4.77;;;4.47;;
5951;SDS011;3001;42.622;23.194;2023-03-01T13:06:12;6.07;;;5.47;;
5951;SDS011;3001;42.622;23.194;2023-03-01T13:08:47;5.70;;;5.30;;
5951;SDS011;3001;42.622;23.194;2023-03-01T13:11:21;5.00;;;4.70;;
5951;SDS011;3001;42.622;23.194;2023-03-01T13:13:50;16.93;;;8.47;;
5951;SDS011;3001;42.622;23.194;2023-03-01T13:16:22;5.47;;;5.03;;
5951;SDS011;3001;42.622;23.194;2023-03-01T13:19:07;5.73;;;5.23;;
5951;SDS011;3001;42.622;23.194;2023-03-01T13:21:37;8.37;;;7.30;;
5951;SDS011;3001;42.622;23.194;2023-03-01T13:24:04;5.93;;;5.53;;
5951;SDS011;3001;42.622;23.194;2023-03-01T13:35:53;5.67;;;5.20;;
5951;SDS011;3001;42.622;23.194;2023-03-01T13:41:04;6.50;;;6.00;;
5951;SDS011;3001;42.622;23.194;2023-03-01T13:43:32;7.27;;;6.67;;
5951;SDS011;3001;42.622;23.194;2023-03-01T13:46:02;6.17;;;5.60;;
5951;SDS011;3001;42.622;23.194;2023-03-01T13:48:36;6.23;;;5.67;;
5951;SDS011;3001;42.622;23.194;2023-03-01T13:51:06;6.30;;;5.90;;
5951;SDS011;3001;42.622;23.194;2023-03-01T13:53:36;5.57;;;5.17;;
5951;SDS011;3001;42.622;23.194;2023-03-01T13:56:07;6.83;;;6.23;;
5951;SDS011;3001;42.622;23.194;2023-03-01T13:58:44;6.60;;;6.00;;
5951;SDS011;3001;42.622;23.194;2023-03-01T14:01:20;5.57;;;5.17;;
5951;SDS011;3001;42.622;23.194;2023-03-01T14:03:49;6.40;;;5.90;;
5951;SDS011;3001;42.622;23.194;2023-03-01T14:06:19;6.50;;;6.00;;
5951;SDS011;3001;42.622;23.194;2023-03-01T14:08:48;5.93;;;5.50;;
5951;SDS011;3001;42.622;23.194;2023-03-01T14:17:35;10.43;;;5.87;;
5951;SDS011;3001;42.622;23.194;2023-03-01T14:20:11;5.50;;;5.00;;
5951;SDS011;3001;42.622;23.194;2023-03-01T14:22:44;6.50;;;5.33;;
5951;SDS011;3001;42.622;23.194;2023-03-01T14:28:02;6.13;;;5.57;;
5951;SDS011;3001;42.622;23.194;2023-03-01T14:30:31;8.07;;;6.50;;
5951;SDS011;3001;42.622;23.194;2023-03-01T14:33:02;7.40;;;6.80;;
5951;SDS011;3001;42.622;23.194;2023-03-01T14:35:32;6.33;;;5.83;;
5951;SDS011;3001;42.622;23.194;2023-03-01T14:38:02;7.63;;;6.07;;
5951;SDS011;3001;42.622;23.194;2023-03-01T14:40:30;6.10;;;5.23;;
5951;SDS011;3001;42.622;23.194;2023-03-01T14:43:00;6.57;;;5.93;;
5951;SDS011;3001;42.622;23.194;2023-03-01T14:45:34;6.77;;;5.70;;
5951;SDS011;3001;42.622;23.194;2023-03-01T14:48:02;7.20;;;5.63;;
5951;SDS011;3001;42.622;23.194;2023-03-01T14:50:30;6.77;;;6.13;;
5951;SDS011;3001;42.622;23.194;2023-03-01T14:52:59;6.43;;;5.83;;
5951;SDS011;3001;42.622;23.194;2023-03-01T14:55:30;6.23;;;5.73;;
5951;SDS011;3001;42.622;23.194;2023-03-01T14:57:59;6.33;;;5.73;;
5951;SDS011;3001;42.622;23.194;2023-03-01T15:00:30;6.80;;;6.10;;
5951;SDS011;3001;42.622;23.194;2023-03-01T15:03:00;6.13;;;5.63;;
5951;SDS011;3001;42.622;23.194;2023-03-01T15:05:34;6.00;;;5.50;;
5951;SDS011;3001;42.622;23.194;2023-03-01T15:08:03;7.67;;;7.17;;
5951;SDS011;3001;42.622;23.194;2023-03-01T15:10:31;5.50;;;5.03;;
5951;SDS011;3001;42.622;23.194;2023-03-01T15:13:09;7.00;;;6.27;;
5951;SDS011;3001;42.622;23.194;2023-03-01T15:15:38;6.93;;;6.40;;
5951;SDS011;3001;42.622;23.194;2023-03-01T15:18:13;7.37;;;6.70;;
5951;SDS011;3001;42.622;23.194;2023-03-01T15:20:43;8.23;;;7.17;;
5951;SDS011;3001;42.622;23.194;2023-03-01T15:23:18;9.33;;;7.00;;
5951;SDS011;3001;42.622;23.194;2023-03-01T15:25:48;8.83;;;7.47;;
5951;SDS011;3001;42.622;23.194;2023-03-01T15:28:21;7.10;;;6.50;;
5951;SDS011;3001;42.622;23.194;2023-03-01T15:30:52;8.37;;;7.00;;
5951;SDS011;3001;42.622;23.194;2023-03-01T15:33:29;13.63;;;8.23;;
5951;SDS011;3001;42.622;23.194;2023-03-01T15:36:02;17.40;;;9.10;;
5951;SDS011;3001;42.622;23.194;2023-03-01T15:38:52;20.63;;;10.17;;
5951;SDS011;3001;42.622;23.194;2023-03-01T15:41:24;17.93;;;12.20;;
5951;SDS011;3001;42.622;23.194;2023-03-01T15:43:52;20.83;;;12.77;;